Fortescue - Dave Forrest Aerodrome


Codes: KFE/KFE
Name: Fortescue - Dave Forrest Aerodrome
City: Cloudbreak Village
Country: Australia
Elevation: 1555 ft.

Photos at Fortescue - Dave Forrest Aerodrome


   Photos courtesy of SpottingLog. You can add your own sightings and photos by signing up for a free trial today.



No photos found.

Weather at Fortescue - Dave Forrest Aerodrome


Time (UTC)DescriptionTempratureWindCloud coverageVisibilityPressureHumidity
21-Feb-2024 03:00Broken Clouds39°C13 mph, NE81%10000m1007hPa22%
21-Feb-2024 06:00Broken Clouds40°C9 mph, NE84%10000m1006hPa20%
21-Feb-2024 09:00Overcast Clouds41°C11 mph, E86%10000m1005hPa18%
21-Feb-2024 12:00Broken Clouds39°C13 mph, NE72%10000m1006hPa18%
21-Feb-2024 15:00Overcast Clouds37°C11 mph, N93%10000m1007hPa22%
21-Feb-2024 18:00Overcast Clouds34°C7 mph, NW97%10000m1006hPa35%
21-Feb-2024 21:00Overcast Clouds32°C9 mph, N99%10000m1007hPa39%
22-Feb-2024 00:00Overcast Clouds35°C7 mph, N100%10000m1009hPa30%
22-Feb-2024 03:00Overcast Clouds39°C7 mph, N100%10000m1007hPa20%
22-Feb-2024 06:00Overcast Clouds42°C13 mph, NE99%10000m1005hPa15%
22-Feb-2024 09:00Scattered Clouds42°C13 mph, E49%10000m1004hPa15%
22-Feb-2024 12:00Broken Clouds40°C16 mph, NE74%10000m1006hPa18%
22-Feb-2024 15:00Overcast Clouds34°C18 mph, NW89%10000m1008hPa41%
22-Feb-2024 18:00Broken Clouds31°C13 mph, NW70%10000m1007hPa53%
22-Feb-2024 21:00Broken Clouds28°C13 mph, NW69%10000m1009hPa67%
23-Feb-2024 00:00Broken Clouds30°C7 mph, NW80%10000m1011hPa61%
23-Feb-2024 03:00Overcast Clouds35°C7 mph, NE98%10000m1010hPa39%
23-Feb-2024 06:00Broken Clouds41°C11 mph, NE67%10000m1006hPa24%
23-Feb-2024 09:00Broken Clouds41°C16 mph, NE76%10000m1005hPa21%
23-Feb-2024 12:00Broken Clouds37°C20 mph, N69%10000m1007hPa31%
23-Feb-2024 15:00Light Rain31°C9 mph, N60%10000m1011hPa56%
23-Feb-2024 18:00Light Rain29°C13 mph, N58%10000m1009hPa64%
23-Feb-2024 21:00Overcast Clouds29°C7 mph, W86%10000m1010hPa63%
24-Feb-2024 00:00Broken Clouds31°C2 mph, SW76%10000m1011hPa54%
24-Feb-2024 03:00Scattered Clouds36°C4 mph, S26%10000m1008hPa37%
24-Feb-2024 06:00Few Clouds40°C0 mph, NE19%10000m1005hPa25%
24-Feb-2024 09:00Light Rain38°C9 mph, N78%10000m1004hPa27%
24-Feb-2024 12:00Light Rain34°C18 mph, NW72%10000m1007hPa39%
24-Feb-2024 15:00Light Rain30°C7 mph, NW87%10000m1009hPa48%
24-Feb-2024 18:00Overcast Clouds31°C9 mph, W93%10000m1007hPa44%
24-Feb-2024 21:00Overcast Clouds31°C4 mph, S94%10000m1007hPa42%
25-Feb-2024 00:00Broken Clouds34°C13 mph, S78%10000m1008hPa32%
25-Feb-2024 03:00Few Clouds41°C13 mph, E21%10000m1006hPa13%
25-Feb-2024 06:00Few Clouds43°C11 mph, E11%10000m1003hPa11%
25-Feb-2024 09:00Scattered Clouds44°C9 mph, E44%10000m1001hPa11%
25-Feb-2024 12:00Broken Clouds38°C18 mph, N72%10000m1004hPa25%
25-Feb-2024 15:00Overcast Clouds33°C20 mph, NW100%10000m1006hPa42%
25-Feb-2024 18:00Overcast Clouds31°C18 mph, NW89%10000m1005hPa48%
25-Feb-2024 21:00Few Clouds31°C13 mph, W17%10000m1005hPa46%
26-Feb-2024 00:00Few Clouds34°C4 mph, SW13%10000m1007hPa39%